createdAt,value
2018-09-20T00:01:19.259Z,19.30
2018-09-20T00:11:22.840Z,19.40
2018-09-20T00:21:26.143Z,19.30
2018-09-20T00:31:29.515Z,19.20
2018-09-20T00:41:32.840Z,19.30
2018-09-20T00:51:36.172Z,19.20
2018-09-20T01:01:39.509Z,19.00
2018-09-20T01:11:42.871Z,18.90
2018-09-20T01:21:46.198Z,18.80
2018-09-20T01:31:49.560Z,19.00
2018-09-20T01:41:52.905Z,18.50
2018-09-20T01:51:56.235Z,18.50
2018-09-20T02:01:59.606Z,18.40
2018-09-20T02:12:02.914Z,18.30
2018-09-20T02:22:06.336Z,18.20
2018-09-20T02:32:09.961Z,18.10
2018-09-20T02:42:13.245Z,18.20
2018-09-20T02:52:17.330Z,18.10
2018-09-20T03:02:21.229Z,18.00
2018-09-20T03:12:24.527Z,17.80
2018-09-20T03:22:29.257Z,17.70
2018-09-20T03:32:32.771Z,17.60
2018-09-20T03:42:36.078Z,17.60
2018-09-20T03:52:39.453Z,17.60
2018-09-20T04:02:42.851Z,17.50
2018-09-20T04:12:46.117Z,17.40
2018-09-20T04:22:49.499Z,17.40
2018-09-20T04:32:52.816Z,17.30
2018-09-20T04:42:56.153Z,17.40
2018-09-20T04:52:59.502Z,17.30
2018-09-20T05:03:02.852Z,17.30
2018-09-20T05:13:06.181Z,17.30
2018-09-20T05:23:09.619Z,17.20
2018-09-20T05:33:12.881Z,17.00
2018-09-20T05:43:16.262Z,17.20
2018-09-20T05:53:19.589Z,17.20
2018-09-20T06:03:22.930Z,17.40
2018-09-20T06:13:26.291Z,17.70
2018-09-20T06:23:29.639Z,17.70
2018-09-20T06:33:32.965Z,18.00
2018-09-20T06:43:36.277Z,18.40
2018-09-20T06:53:39.686Z,18.60
2018-09-20T07:03:43.033Z,18.60
2018-09-20T07:13:46.446Z,19.00
2018-09-20T07:23:49.685Z,19.40
2018-09-20T07:33:52.986Z,19.70
2018-09-20T07:43:56.349Z,20.00
2018-09-20T07:53:59.785Z,20.40
2018-09-20T08:04:03.050Z,20.60
2018-09-20T08:14:07.494Z,20.90
2018-09-20T08:24:11.005Z,21.20
2018-09-20T08:34:14.294Z,21.50
2018-09-20T08:44:17.585Z,21.80
2018-09-20T08:54:20.869Z,22.10
2018-09-20T09:04:58.636Z,22.30
2018-09-20T09:15:01.913Z,22.50
2018-09-20T09:25:05.185Z,22.70
2018-09-20T09:35:08.430Z,22.90
2018-09-20T09:45:11.746Z,23.30
2018-09-20T09:55:14.986Z,23.60
2018-09-20T10:05:18.235Z,24.10
2018-09-20T10:15:21.503Z,24.40
2018-09-20T10:25:24.742Z,24.90
2018-09-20T10:35:28.012Z,25.30
2018-09-20T10:45:31.340Z,25.60
2018-09-20T10:55:34.585Z,26.00
2018-09-20T11:05:37.854Z,26.30
2018-09-20T11:15:41.111Z,26.40
2018-09-20T11:25:44.742Z,26.30
2018-09-20T11:35:47.949Z,26.60
2018-09-20T11:45:51.234Z,27.00
2018-09-20T11:55:54.480Z,27.30
2018-09-20T12:05:57.720Z,27.60
2018-09-20T12:16:01.077Z,28.10
2018-09-20T12:26:04.346Z,28.00
2018-09-20T12:36:07.767Z,27.60
2018-09-20T12:46:11.181Z,27.40
2018-09-20T12:56:14.400Z,27.80
2018-09-20T13:06:17.781Z,28.00
2018-09-20T13:16:21.071Z,28.10
2018-09-20T13:26:24.309Z,28.10
2018-09-20T13:36:27.637Z,28.10
2018-09-20T13:46:30.897Z,28.30
2018-09-20T13:56:34.204Z,28.20
2018-09-20T14:06:37.382Z,28.30
2018-09-20T14:16:40.694Z,28.50
2018-09-20T14:26:43.945Z,29.00
2018-09-20T14:36:47.906Z,28.90
2018-09-20T14:46:51.177Z,28.50
2018-09-20T14:56:54.427Z,28.60
2018-09-20T15:06:57.657Z,28.60
2018-09-20T15:17:00.935Z,30.00
2018-09-20T15:27:04.182Z,28.60
2018-09-20T15:37:07.471Z,28.30
2018-09-20T15:47:11.376Z,28.00
2018-09-20T15:57:14.630Z,27.80
2018-09-20T16:07:18.034Z,27.60
2018-09-20T16:17:21.397Z,27.40
2018-09-20T16:27:24.654Z,27.30
2018-09-20T16:37:40.581Z,27.10
2018-09-20T16:47:44.218Z,26.90
2018-09-20T16:57:47.610Z,26.70
2018-09-20T17:07:50.974Z,26.40
2018-09-20T17:17:54.381Z,26.00
2018-09-20T17:27:59.805Z,25.60
2018-09-20T17:38:03.858Z,25.20
2018-09-20T17:48:07.406Z,24.80
2018-09-20T17:58:11.146Z,24.40
2018-09-20T18:08:14.400Z,24.10
2018-09-20T18:18:17.857Z,23.90
2018-09-20T18:28:21.149Z,23.60
2018-09-20T18:38:26.569Z,23.40
2018-09-20T18:48:29.968Z,23.10
2018-09-20T18:58:37.333Z,22.90
2018-09-20T19:08:44.631Z,22.70
2018-09-20T19:18:48.100Z,22.30
2018-09-20T19:28:53.683Z,22.20
2018-09-20T19:38:57.116Z,22.10
2018-09-20T19:49:00.506Z,21.80
2018-09-20T19:59:06.287Z,21.70
2018-09-20T20:09:12.746Z,21.30
2018-09-20T20:19:18.109Z,21.20
2018-09-20T20:29:21.582Z,21.20
2018-09-20T20:39:24.871Z,21.00
2018-09-20T20:49:28.209Z,20.90
2018-09-20T20:59:31.755Z,20.70
2018-09-20T21:09:35.239Z,20.60
2018-09-20T21:19:38.533Z,20.50
2018-09-20T21:29:41.905Z,20.60
2018-09-20T21:39:45.214Z,20.40
2018-09-20T21:49:48.577Z,20.30
2018-09-20T21:59:52.101Z,20.20
2018-09-20T22:09:55.582Z,20.10
2018-09-20T22:19:58.922Z,19.90
2018-09-20T22:30:02.321Z,19.90
2018-09-20T22:40:05.756Z,19.70
2018-09-20T22:50:08.985Z,19.60
2018-09-20T23:00:12.248Z,19.60
2018-09-20T23:10:15.457Z,19.50
2018-09-20T23:20:18.765Z,19.40
2018-09-20T23:30:22.092Z,19.30
2018-09-20T23:40:25.301Z,19.10
2018-09-20T23:50:28.523Z,19.00
